createdAt,value
2023-02-19T00:01:49.540Z,101046.28
2023-02-19T00:04:21.833Z,101048.75
2023-02-19T00:06:50.124Z,101061.34
2023-02-19T00:09:20.052Z,101070.22
2023-02-19T00:11:48.705Z,101067.78
2023-02-19T00:14:19.963Z,101057.94
2023-02-19T00:16:48.893Z,101063.31
2023-02-19T00:19:20.802Z,101048.22
2023-02-19T00:21:52.391Z,101033.91
2023-02-19T00:24:21.538Z,101020.59
2023-02-19T00:26:49.481Z,101034.00
2023-02-19T00:29:21.139Z,101033.03
2023-02-19T00:31:49.299Z,101040.94
2023-02-19T00:34:17.098Z,101036.53
2023-02-19T00:36:45.121Z,101039.19
2023-02-19T00:39:18.268Z,101038.38
2023-02-19T00:41:46.605Z,101041.94
2023-02-19T00:44:15.467Z,101037.38
2023-02-19T00:46:46.524Z,101024.72
2023-02-19T00:49:21.858Z,101024.88
2023-02-19T00:51:52.077Z,101035.56
2023-02-19T00:54:22.415Z,101041.84
2023-02-19T00:56:51.655Z,101059.69
2023-02-19T00:59:19.645Z,101057.94
2023-02-19T01:01:47.391Z,101046.50
2023-02-19T01:04:16.544Z,101044.63
2023-02-19T01:06:48.888Z,101032.19
2023-02-19T01:09:16.830Z,101017.38
2023-02-19T01:11:44.938Z,101026.28
2023-02-19T01:14:12.742Z,101014.13
2023-02-19T01:16:40.514Z,101012.25
2023-02-19T01:19:08.590Z,101020.22
2023-02-19T01:21:36.369Z,101020.47
2023-02-19T01:24:04.747Z,101023.97
2023-02-19T01:26:33.761Z,101021.56
2023-02-19T01:29:06.581Z,101034.97
2023-02-19T01:31:35.567Z,101030.25
2023-02-19T01:34:04.571Z,101029.09
2023-02-19T01:36:34.272Z,101028.75
2023-02-19T01:39:05.003Z,101030.50
2023-02-19T01:41:39.387Z,101041.13
2023-02-19T01:44:17.739Z,101034.78
2023-02-19T01:46:48.431Z,101027.94
2023-02-19T01:49:33.517Z,101026.75
2023-02-19T01:52:11.916Z,101020.34
2023-02-19T01:54:42.916Z,101013.88
2023-02-19T01:57:21.625Z,100996.88
2023-02-19T01:59:55.280Z,100988.03
2023-02-19T02:02:28.444Z,100982.78
2023-02-19T02:04:58.672Z,100992.75
2023-02-19T02:07:45.209Z,100998.06
2023-02-19T02:10:22.305Z,100999.19
2023-02-19T02:12:56.865Z,101016.91
2023-02-19T02:15:39.315Z,101000.13
2023-02-19T02:19:01.115Z,101008.19
2023-02-19T02:22:30.169Z,100998.69
2023-02-19T02:25:25.069Z,101004.88
2023-02-19T02:28:17.456Z,100991.53
2023-02-19T02:31:06.413Z,100981.00
2023-02-19T02:33:47.455Z,100984.47
2023-02-19T02:36:39.430Z,100991.47
2023-02-19T02:39:12.858Z,100974.88
2023-02-19T02:42:09.859Z,100988.00
2023-02-19T02:45:02.975Z,100995.19
2023-02-19T02:47:41.178Z,100983.81
2023-02-19T02:50:25.022Z,100987.22
2023-02-19T02:53:25.411Z,100981.94
2023-02-19T02:55:54.429Z,100973.22
2023-02-19T02:58:44.397Z,100981.28
2023-02-19T03:02:03.887Z,100984.69
2023-02-19T03:05:28.692Z,100964.41
2023-02-19T03:08:15.785Z,100975.16
2023-02-19T03:11:21.633Z,100973.31
2023-02-19T03:14:13.878Z,100962.91
2023-02-19T03:17:04.458Z,100971.69
2023-02-19T03:19:41.934Z,100978.66
2023-02-19T03:22:31.382Z,100967.09
2023-02-19T03:25:31.440Z,100971.44
2023-02-19T03:28:04.990Z,100973.22
2023-02-19T03:30:43.721Z,100964.41
2023-02-19T03:33:22.617Z,100973.94
2023-02-19T03:35:56.984Z,100992.63
2023-02-19T03:38:38.399Z,100995.22
2023-02-19T03:41:22.109Z,100991.84
2023-02-19T03:44:27.376Z,101003.28
2023-02-19T03:47:10.976Z,101009.56
2023-02-19T03:49:54.742Z,101005.16
2023-02-19T03:52:53.497Z,101022.06
2023-02-19T03:55:56.144Z,101016.63
2023-02-19T03:58:44.563Z,101026.69
2023-02-19T04:01:31.337Z,101015.19
2023-02-19T04:04:28.916Z,101018.69
2023-02-19T04:06:58.130Z,101007.25
2023-02-19T04:09:37.701Z,101025.88
2023-02-19T04:12:13.178Z,101016.41
2023-02-19T04:15:17.923Z,101022.84
2023-02-19T04:18:18.057Z,101040.50
2023-02-19T04:20:48.105Z,101030.78
2023-02-19T04:23:20.669Z,101029.97
2023-02-19T04:25:54.748Z,101040.63
2023-02-19T04:28:22.736Z,101029.09
2023-02-19T04:30:50.681Z,101020.25
2023-02-19T04:33:19.310Z,101024.66
2023-02-19T04:35:47.069Z,101030.84
2023-02-19T04:38:15.723Z,101035.25
2023-02-19T04:40:43.420Z,101030.91
2023-02-19T04:43:11.376Z,101038.91
2023-02-19T04:45:39.551Z,101027.69
2023-02-19T04:48:07.365Z,101048.03
2023-02-19T04:50:37.344Z,101041.16
2023-02-19T04:53:05.720Z,101040.44
2023-02-19T04:55:38.548Z,101026.25
2023-02-19T04:58:06.254Z,101043.19
2023-02-19T05:00:34.513Z,101043.22
2023-02-19T05:03:02.367Z,101033.56
2023-02-19T05:05:30.126Z,101031.84
2023-02-19T05:07:58.043Z,101031.91
2023-02-19T05:10:25.734Z,101012.44
2023-02-19T05:12:57.885Z,101023.84
2023-02-19T05:15:25.780Z,101026.63
2023-02-19T05:17:53.558Z,101032.09
2023-02-19T05:20:22.977Z,101032.47
2023-02-19T05:22:50.868Z,101041.28
2023-02-19T05:25:18.694Z,101051.97
2023-02-19T05:27:46.630Z,101041.34
2023-02-19T05:30:14.373Z,101048.31
2023-02-19T05:32:42.131Z,101049.22
2023-02-19T05:35:09.908Z,101037.66
2023-02-19T05:37:37.642Z,101041.09
2023-02-19T05:40:06.090Z,101029.50
2023-02-19T05:42:35.876Z,101026.97
2023-02-19T05:45:03.844Z,101041.94
2023-02-19T05:47:31.524Z,101017.22
2023-02-19T05:49:59.284Z,101038.44
2023-02-19T05:52:27.025Z,101038.50
2023-02-19T05:54:54.872Z,101040.41
2023-02-19T05:57:22.939Z,101036.03
2023-02-19T05:59:50.824Z,101029.94
2023-02-19T06:02:19.938Z,101028.03
2023-02-19T06:04:47.616Z,101041.34
2023-02-19T06:07:15.330Z,101038.88
2023-02-19T06:09:43.009Z,101046.88
2023-02-19T06:12:10.698Z,101037.03
2023-02-19T06:14:38.926Z,101049.59
2023-02-19T06:17:06.695Z,101057.50
2023-02-19T06:19:34.499Z,101064.59
2023-02-19T06:22:02.428Z,101064.50
2023-02-19T06:24:30.584Z,101068.16
2023-02-19T06:26:58.565Z,101084.88
2023-02-19T06:29:26.418Z,101098.09
2023-02-19T06:31:54.204Z,101088.47
2023-02-19T06:34:22.027Z,101098.13
2023-02-19T06:36:50.848Z,101097.28
2023-02-19T06:39:18.865Z,101089.47
2023-02-19T06:41:46.541Z,101113.34
2023-02-19T06:44:14.526Z,101109.03
2023-02-19T06:46:42.884Z,101122.34
2023-02-19T06:49:10.614Z,101132.13
2023-02-19T06:51:38.386Z,101126.78
2023-02-19T06:54:06.366Z,101123.34
2023-02-19T06:56:40.291Z,101141.84
2023-02-19T06:59:16.689Z,101145.44
2023-02-19T07:01:46.005Z,101153.53
2023-02-19T07:04:14.258Z,101140.13
2023-02-19T07:06:42.485Z,101143.69
2023-02-19T07:09:11.145Z,101140.09
2023-02-19T07:11:40.252Z,101147.28
2023-02-19T07:14:14.294Z,101148.09
2023-02-19T07:16:42.126Z,101147.34
2023-02-19T07:19:10.579Z,101140.34
2023-02-19T07:21:39.329Z,101132.47
2023-02-19T07:24:07.204Z,101152.75
2023-02-19T07:26:36.203Z,101150.13
2023-02-19T07:29:04.868Z,101159.81
2023-02-19T07:31:32.685Z,101157.25
2023-02-19T07:34:00.449Z,101154.66
2023-02-19T07:36:28.539Z,101166.13
2023-02-19T07:38:58.192Z,101178.47
2023-02-19T07:41:27.330Z,101169.81
2023-02-19T07:43:58.400Z,101171.34
2023-02-19T07:46:26.512Z,101171.31
2023-02-19T07:48:54.288Z,101177.47
2023-02-19T07:51:22.780Z,101174.00
2023-02-19T07:53:50.876Z,101179.31
2023-02-19T07:56:20.165Z,101199.59
2023-02-19T07:58:48.003Z,101198.84
2023-02-19T08:01:19.607Z,101192.47
2023-02-19T08:03:50.312Z,101205.75
2023-02-19T08:06:18.395Z,101207.50
2023-02-19T08:08:46.413Z,101206.38
2023-02-19T08:11:33.227Z,101203.66
2023-02-19T08:14:01.148Z,101210.59
2023-02-19T08:16:42.252Z,101221.22
2023-02-19T08:19:10.928Z,101217.78
2023-02-19T08:21:38.845Z,101223.97
2023-02-19T08:24:07.032Z,101224.84
2023-02-19T08:26:35.856Z,101223.88
2023-02-19T08:29:05.679Z,101228.28
2023-02-19T08:31:35.298Z,101229.19
2023-02-19T08:34:03.172Z,101234.34
2023-02-19T08:36:31.108Z,101215.81
2023-02-19T08:38:58.881Z,101213.91
2023-02-19T08:41:26.718Z,101220.09
2023-02-19T08:43:54.449Z,101215.63
2023-02-19T08:46:22.789Z,101217.13
2023-02-19T08:48:51.115Z,101207.34
2023-02-19T08:51:19.061Z,101212.53
2023-02-19T08:53:47.146Z,101209.84
2023-02-19T08:56:34.795Z,101196.38
2023-02-19T08:59:15.077Z,101191.19
2023-02-19T09:02:02.947Z,101184.00
2023-02-19T09:04:30.927Z,101179.44
2023-02-19T09:06:58.984Z,101173.22
2023-02-19T09:09:26.928Z,101206.09
2023-02-19T09:11:54.731Z,101199.84
2023-02-19T09:14:22.543Z,101200.63
2023-02-19T09:16:50.567Z,101211.38
2023-02-19T09:19:18.752Z,101214.94
2023-02-19T09:21:46.481Z,101219.19
2023-02-19T09:24:14.406Z,101211.25
2023-02-19T09:26:42.073Z,101233.31
2023-02-19T09:29:11.974Z,101209.53
2023-02-19T09:31:39.782Z,101218.25
2023-02-19T09:34:07.811Z,101239.44
2023-02-19T09:36:35.583Z,101247.31
2023-02-19T09:39:07.554Z,101238.34
2023-02-19T09:41:46.573Z,101256.03
2023-02-19T09:44:27.541Z,101269.19
2023-02-19T09:46:56.079Z,101270.00
2023-02-19T09:49:36.842Z,101267.94
2023-02-19T09:52:11.820Z,101279.50
2023-02-19T09:54:41.064Z,101257.22
2023-02-19T09:57:22.583Z,101274.59
2023-02-19T10:00:10.381Z,101263.59
2023-02-19T10:02:39.178Z,101284.50
2023-02-19T10:05:14.407Z,101296.69
2023-02-19T10:07:46.060Z,101277.00
2023-02-19T10:10:13.873Z,101283.09
2023-02-19T10:12:50.346Z,101288.34
2023-02-19T10:15:39.003Z,101278.59
2023-02-19T10:18:08.866Z,101283.75
2023-02-19T10:20:39.438Z,101283.69
2023-02-19T10:23:11.209Z,101280.94
2023-02-19T10:25:54.167Z,101268.44
2023-02-19T10:28:33.594Z,101278.13
2023-02-19T10:31:06.168Z,101265.84
2023-02-19T10:33:47.583Z,101273.78
2023-02-19T10:36:41.916Z,101280.81
2023-02-19T10:39:47.933Z,101291.28
2023-02-19T10:42:23.442Z,101292.78
2023-02-19T10:45:01.723Z,101287.28
2023-02-19T10:47:32.800Z,101295.94
2023-02-19T10:50:04.404Z,101297.69
2023-02-19T10:52:36.175Z,101305.41
2023-02-19T10:55:19.150Z,101317.31
2023-02-19T10:57:47.007Z,101308.09
2023-02-19T11:00:31.251Z,101299.63
2023-02-19T11:03:17.862Z,101312.69
2023-02-19T11:06:04.386Z,101313.66
2023-02-19T11:08:50.204Z,101321.53
2023-02-19T11:11:38.360Z,101331.41
2023-02-19T11:14:20.047Z,101321.75
2023-02-19T11:16:52.063Z,101326.78
2023-02-19T11:19:31.890Z,101316.56
2023-02-19T11:22:00.693Z,101318.34
2023-02-19T11:24:38.338Z,101316.31
2023-02-19T11:27:16.894Z,101325.06
2023-02-19T11:29:44.789Z,101323.47
2023-02-19T11:32:21.644Z,101335.69
2023-02-19T11:34:49.592Z,101330.44
2023-02-19T11:37:21.071Z,101348.19
2023-02-19T11:39:51.606Z,101350.06
2023-02-19T11:42:49.405Z,101349.94
2023-02-19T11:45:26.707Z,101361.63
2023-02-19T11:48:22.237Z,101363.44
2023-02-19T11:51:16.961Z,101360.84
2023-02-19T11:53:57.759Z,101344.13
2023-02-19T11:56:36.654Z,101352.09
2023-02-19T11:59:26.699Z,101354.75
2023-02-19T12:02:27.241Z,101348.63
2023-02-19T12:05:23.289Z,101349.72
2023-02-19T12:08:28.115Z,101326.88
2023-02-19T12:11:36.555Z,101333.88
2023-02-19T12:14:16.134Z,101333.75
2023-02-19T12:17:17.042Z,101332.81
2023-02-19T12:20:24.333Z,101336.06
2023-02-19T12:23:50.858Z,101331.34
2023-02-19T12:26:42.112Z,101338.09
2023-02-19T12:29:48.897Z,101329.19
2023-02-19T12:32:28.587Z,101336.19
2023-02-19T12:35:21.005Z,101326.06
2023-02-19T12:38:25.090Z,101318.72
2023-02-19T12:41:10.303Z,101322.97
2023-02-19T12:43:53.519Z,101327.00
2023-02-19T12:46:31.379Z,101336.50
2023-02-19T12:49:10.406Z,101343.38
2023-02-19T12:51:50.466Z,101321.97
2023-02-19T12:54:38.827Z,101338.59
2023-02-19T12:57:13.014Z,101349.91
2023-02-19T13:00:09.471Z,101339.03
2023-02-19T13:03:20.891Z,101335.31
2023-02-19T13:06:19.360Z,101322.63
2023-02-19T13:09:08.044Z,101317.28
2023-02-19T13:11:43.496Z,101325.91
2023-02-19T13:14:24.374Z,101319.63
2023-02-19T13:17:01.590Z,101318.84
2023-02-19T13:19:31.359Z,101321.66
2023-02-19T13:22:45.622Z,101323.44
2023-02-19T13:25:16.235Z,101326.69
2023-02-19T13:28:08.097Z,101320.25
2023-02-19T13:30:54.816Z,101321.91
2023-02-19T13:33:46.791Z,101310.28
2023-02-19T13:36:27.970Z,101304.69
2023-02-19T13:38:57.652Z,101310.97
2023-02-19T13:41:40.777Z,101318.34
2023-02-19T13:44:19.836Z,101317.22
2023-02-19T13:46:50.309Z,101317.31
2023-02-19T13:49:31.568Z,101313.44
2023-02-19T13:52:00.419Z,101299.31
2023-02-19T13:54:35.976Z,101298.31
2023-02-19T13:57:22.400Z,101297.34
2023-02-19T13:59:51.759Z,101287.69
2023-02-19T14:02:22.214Z,101292.88
2023-02-19T14:05:11.726Z,101289.41
2023-02-19T14:07:55.334Z,101292.09
2023-02-19T14:11:02.587Z,101287.44
2023-02-19T14:13:52.462Z,101288.13
2023-02-19T14:16:43.215Z,101285.09
2023-02-19T14:19:35.076Z,101292.94
2023-02-19T14:22:24.542Z,101283.03
2023-02-19T14:24:54.902Z,101287.34
2023-02-19T14:27:22.931Z,101304.81
2023-02-19T14:29:51.122Z,101296.66
2023-02-19T14:32:20.613Z,101301.16
2023-02-19T14:34:48.810Z,101305.69
2023-02-19T14:37:22.486Z,101314.41
2023-02-19T14:39:52.197Z,101320.53
2023-02-19T14:42:33.532Z,101313.34
2023-02-19T14:45:06.712Z,101328.50
2023-02-19T14:47:37.072Z,101328.50
2023-02-19T14:50:24.678Z,101344.41
2023-02-19T14:52:57.639Z,101340.94
2023-02-19T14:55:37.940Z,101342.75
2023-02-19T14:58:44.167Z,101340.06
2023-02-19T15:01:28.943Z,101336.78
2023-02-19T15:03:57.064Z,101332.31
2023-02-19T15:06:26.924Z,101343.03
2023-02-19T15:09:00.640Z,101354.59
2023-02-19T15:11:32.433Z,101353.88
2023-02-19T15:14:07.126Z,101361.88
2023-02-19T15:16:36.680Z,101370.00
2023-02-19T15:19:09.458Z,101362.97
2023-02-19T15:21:44.538Z,101361.34
2023-02-19T15:24:16.701Z,101378.34
2023-02-19T15:26:54.211Z,101378.47
2023-02-19T15:29:26.233Z,101375.88
2023-02-19T15:31:56.253Z,101375.00
2023-02-19T15:34:29.704Z,101382.09
2023-02-19T15:37:06.329Z,101378.53
2023-02-19T15:39:55.907Z,101380.34
2023-02-19T15:42:31.134Z,101367.13
2023-02-19T15:45:20.881Z,101372.56
2023-02-19T15:48:11.630Z,101378.25
2023-02-19T15:50:50.503Z,101375.03
2023-02-19T15:53:24.914Z,101369.69
2023-02-19T15:56:14.236Z,101377.03
2023-02-19T15:59:34.080Z,101394.31
2023-02-19T16:02:03.943Z,101391.81
2023-02-19T16:04:35.477Z,101393.56
2023-02-19T16:07:03.952Z,101383.88
2023-02-19T16:09:41.069Z,101389.25
2023-02-19T16:12:24.888Z,101375.25
2023-02-19T16:14:53.835Z,101382.47
2023-02-19T16:17:27.835Z,101391.47
2023-02-19T16:20:01.388Z,101387.97
2023-02-19T16:22:41.262Z,101387.91
2023-02-19T16:25:29.129Z,101389.81
2023-02-19T16:27:57.782Z,101383.00
2023-02-19T16:30:33.998Z,101389.84
2023-02-19T16:33:26.611Z,101390.00
2023-02-19T16:35:54.432Z,101384.09
2023-02-19T16:38:22.285Z,101384.88
2023-02-19T16:40:54.145Z,101386.72
2023-02-19T16:43:41.439Z,101383.19
2023-02-19T16:46:11.955Z,101385.97
2023-02-19T16:48:39.968Z,101383.38
2023-02-19T16:51:08.745Z,101381.72
2023-02-19T16:53:36.533Z,101380.84
2023-02-19T16:56:04.535Z,101396.03
2023-02-19T16:58:32.274Z,101392.56
2023-02-19T17:01:00.736Z,101405.00
2023-02-19T17:03:28.797Z,101403.34
2023-02-19T17:05:56.825Z,101392.75
2023-02-19T17:08:42.336Z,101400.66
2023-02-19T17:11:16.569Z,101410.56
2023-02-19T17:13:48.876Z,101405.41
2023-02-19T17:16:24.421Z,101400.16
2023-02-19T17:18:52.940Z,101413.53
2023-02-19T17:21:23.433Z,101407.47
2023-02-19T17:23:52.290Z,101429.78
2023-02-19T17:26:28.046Z,101422.78
2023-02-19T17:29:00.632Z,101424.78
2023-02-19T17:31:29.297Z,101427.63
2023-02-19T17:33:58.869Z,101427.69
2023-02-19T17:36:31.978Z,101429.44
2023-02-19T17:39:01.826Z,101435.81
2023-02-19T17:41:29.950Z,101446.50
2023-02-19T17:43:57.897Z,101438.72
2023-02-19T17:46:27.399Z,101446.63
2023-02-19T17:48:55.576Z,101458.31
2023-02-19T17:51:23.441Z,101457.44
2023-02-19T17:53:51.173Z,101473.44
2023-02-19T17:56:22.419Z,101485.00
2023-02-19T17:58:50.407Z,101486.00
2023-02-19T18:01:18.282Z,101479.78
2023-02-19T18:03:46.377Z,101485.94
2023-02-19T18:06:14.540Z,101487.69
2023-02-19T18:08:51.444Z,101493.81
2023-02-19T18:11:21.941Z,101485.00
2023-02-19T18:13:51.746Z,101473.56
2023-02-19T18:16:20.002Z,101485.13
2023-02-19T18:18:47.883Z,101486.22
2023-02-19T18:21:15.815Z,101489.88
2023-02-19T18:23:44.099Z,101475.75
2023-02-19T18:26:13.695Z,101488.19
2023-02-19T18:28:41.570Z,101494.41
2023-02-19T18:31:09.669Z,101482.19
2023-02-19T18:33:37.659Z,101488.38
2023-02-19T18:36:11.753Z,101496.34
2023-02-19T18:38:44.501Z,101519.53
2023-02-19T18:41:20.280Z,101524.97
2023-02-19T18:43:48.701Z,101499.38
2023-02-19T18:46:20.703Z,101529.56
2023-02-19T18:48:48.474Z,101523.44
2023-02-19T18:51:16.273Z,101526.19
2023-02-19T18:53:43.930Z,101534.94
2023-02-19T18:56:11.639Z,101535.13
2023-02-19T18:58:39.376Z,101536.13
2023-02-19T19:01:09.038Z,101555.56
2023-02-19T19:03:37.209Z,101545.16
2023-02-19T19:06:05.230Z,101562.69
2023-02-19T19:08:34.286Z,101556.47
2023-02-19T19:11:04.786Z,101553.94
2023-02-19T19:13:47.039Z,101562.84
2023-02-19T19:16:15.567Z,101564.50
2023-02-19T19:18:44.345Z,101563.59
2023-02-19T19:21:15.433Z,101560.03
2023-02-19T19:23:44.599Z,101559.16
2023-02-19T19:26:13.961Z,101550.22
2023-02-19T19:28:46.539Z,101564.31
2023-02-19T19:31:17.613Z,101558.13
2023-02-19T19:33:47.605Z,101566.69
2023-02-19T19:36:21.616Z,101566.38
2023-02-19T19:38:49.710Z,101576.09
2023-02-19T19:41:19.864Z,101558.41
2023-02-19T19:43:48.174Z,101556.59
2023-02-19T19:46:19.094Z,101577.75
2023-02-19T19:48:49.011Z,101575.63
2023-02-19T19:51:17.734Z,101555.88
2023-02-19T19:53:49.997Z,101568.16
2023-02-19T19:56:17.932Z,101567.19
2023-02-19T19:58:47.504Z,101569.88
2023-02-19T20:01:20.748Z,101563.75
2023-02-19T20:03:51.015Z,101567.13
2023-02-19T20:06:28.683Z,101557.31
2023-02-19T20:08:58.408Z,101549.41
2023-02-19T20:11:26.759Z,101564.41
2023-02-19T20:13:54.695Z,101557.38
2023-02-19T20:16:29.184Z,101577.66
2023-02-19T20:18:57.096Z,101569.75
2023-02-19T20:21:25.617Z,101571.47
2023-02-19T20:23:53.779Z,101575.03
2023-02-19T20:26:27.922Z,101574.13
2023-02-19T20:28:56.547Z,101574.16
2023-02-19T20:31:25.204Z,101570.63
2023-02-19T20:33:53.920Z,101573.34
2023-02-19T20:36:22.361Z,101577.88
2023-02-19T20:38:50.207Z,101577.06
2023-02-19T20:41:18.009Z,101570.84
2023-02-19T20:43:46.308Z,101569.00
2023-02-19T20:46:14.591Z,101564.69
2023-02-19T20:48:42.567Z,101576.09
2023-02-19T20:51:16.576Z,101567.25
2023-02-19T20:53:44.713Z,101568.13
2023-02-19T20:56:32.532Z,101580.66
2023-02-19T20:59:00.587Z,101577.13
2023-02-19T21:01:48.607Z,101591.41
2023-02-19T21:04:38.730Z,101584.34
2023-02-19T21:07:26.994Z,101589.66
2023-02-19T21:09:56.629Z,101586.13
2023-02-19T21:12:24.566Z,101595.00
2023-02-19T21:15:12.273Z,101599.59
2023-02-19T21:17:40.171Z,101596.94
2023-02-19T21:20:08.923Z,101602.28
2023-02-19T21:22:38.572Z,101597.81
2023-02-19T21:25:06.823Z,101592.50
2023-02-19T21:27:34.587Z,101585.44
2023-02-19T21:30:02.991Z,101583.56
2023-02-19T21:32:31.106Z,101586.19
2023-02-19T21:34:58.937Z,101571.19
2023-02-19T21:37:26.729Z,101595.13
2023-02-19T21:39:55.617Z,101584.44
2023-02-19T21:42:23.390Z,101574.63
2023-02-19T21:44:52.431Z,101582.59
2023-02-19T21:47:20.476Z,101587.06
2023-02-19T21:49:48.561Z,101582.66
2023-02-19T21:52:16.422Z,101577.38
2023-02-19T21:54:44.141Z,101585.25
2023-02-19T21:57:12.092Z,101582.75
2023-02-19T21:59:39.777Z,101583.59
2023-02-19T22:02:07.525Z,101586.31
2023-02-19T22:04:39.741Z,101587.41
2023-02-19T22:07:07.623Z,101596.25
2023-02-19T22:09:35.969Z,101608.66
2023-02-19T22:12:04.312Z,101605.13
2023-02-19T22:14:31.988Z,101611.34
2023-02-19T22:16:59.661Z,101607.91
2023-02-19T22:19:27.550Z,101617.63
2023-02-19T22:21:55.734Z,101614.03
2023-02-19T22:24:23.787Z,101613.16
2023-02-19T22:26:58.945Z,101613.03
2023-02-19T22:29:27.809Z,101606.00
2023-02-19T22:31:56.033Z,101597.13
2023-02-19T22:34:24.877Z,101598.84
2023-02-19T22:36:52.947Z,101587.41
2023-02-19T22:39:25.247Z,101604.19
2023-02-19T22:41:54.698Z,101606.94
2023-02-19T22:44:22.555Z,101602.50
2023-02-19T22:46:59.268Z,101609.47
2023-02-19T22:49:27.008Z,101603.44
2023-02-19T22:52:04.257Z,101608.66
2023-02-19T22:54:33.923Z,101609.66
2023-02-19T22:57:02.247Z,101608.78
2023-02-19T22:59:30.268Z,101608.91
2023-02-19T23:01:58.126Z,101614.28
2023-02-19T23:04:26.222Z,101612.59
2023-02-19T23:06:56.636Z,101619.84
2023-02-19T23:09:27.963Z,101608.25
2023-02-19T23:12:08.318Z,101621.66
2023-02-19T23:14:36.886Z,101614.03
2023-02-19T23:17:05.293Z,101618.38
2023-02-19T23:19:33.297Z,101609.56
2023-02-19T23:22:01.203Z,101626.41
2023-02-19T23:24:29.168Z,101605.25
2023-02-19T23:26:56.994Z,101626.56
2023-02-19T23:29:27.011Z,101623.13
2023-02-19T23:31:54.849Z,101623.03
2023-02-19T23:34:24.308Z,101622.22
2023-02-19T23:36:53.966Z,101629.31
2023-02-19T23:39:22.688Z,101629.34
2023-02-19T23:41:57.133Z,101617.84
2023-02-19T23:44:26.307Z,101621.53
2023-02-19T23:46:55.678Z,101626.88
2023-02-19T23:49:23.758Z,101628.69
2023-02-19T23:51:51.735Z,101624.34
2023-02-19T23:54:19.537Z,101618.19
2023-02-19T23:56:47.501Z,101618.34
2023-02-19T23:59:15.618Z,101621.84
